CPA464 RCTP-VHHH
Flight info
| Callsign | CPA464 |
|---|---|
| Flight time | N/A |
| Altitude | 38000 |
| Route | CHALI1A CHALI T3 MKG A1 ELATO V522 ABBEY |
| Aircraft | A333/H-SDE3GHIJ2J3J5M1RVWXY/LB2D1 |
Departure
| Time | 2026-05-06 15:01 |
|---|---|
| Airport | Taiwan Taoyuan International Airport (RCTP) |
Arrival
| Time | N/A |
|---|---|
| Airport | Hong Kong International Airport (VHHH) |
| Time | Latitude | Longitude | Altitude | Speed | Heading |
|---|---|---|---|---|---|
| 2026-05-06 14:27 | 25.08080 | 121.23275 | 105 ft | 0 kts | 139° |
| 2026-05-06 14:50 | 25.08096 | 121.23261 | 104 ft | 4 kts | 146° |
| 2026-05-06 14:51 | 25.08119 | 121.23246 | 102 ft | 4 kts | 158° |
| 2026-05-06 14:51 | 25.08145 | 121.23237 | 103 ft | 4 kts | 171° |
| 2026-05-06 14:51 | 25.08172 | 121.23236 | 103 ft | 4 kts | 187° |
| 2026-05-06 14:51 | 25.08197 | 121.23243 | 104 ft | 4 kts | 212° |
| 2026-05-06 14:52 | 25.08208 | 121.23252 | 103 ft | 1 kts | 229° |
| 2026-05-06 14:56 | 25.08204 | 121.23247 | 105 ft | 2 kts | 229° |
| 2026-05-06 14:56 | 25.08186 | 121.23225 | 105 ft | 6 kts | 229° |
| 2026-05-06 14:56 | 25.08153 | 121.23183 | 105 ft | 9 kts | 229° |
| 2026-05-06 14:56 | 25.08106 | 121.23123 | 105 ft | 12 kts | 229° |
| 2026-05-06 14:57 | 25.08045 | 121.23045 | 105 ft | 15 kts | 229° |
| 2026-05-06 14:57 | 25.07972 | 121.22953 | 105 ft | 17 kts | 229° |
| 2026-05-06 14:57 | 25.07889 | 121.22846 | 105 ft | 19 kts | 229° |
| 2026-05-06 14:57 | 25.07796 | 121.22727 | 105 ft | 21 kts | 229° |
| 2026-05-06 14:58 | 25.07696 | 121.22598 | 105 ft | 23 kts | 229° |
| 2026-05-06 14:58 | 25.07599 | 121.22452 | 104 ft | 24 kts | 252° |
| 2026-05-06 14:58 | 25.07594 | 121.22323 | 105 ft | 13 kts | 251° |
| 2026-05-06 14:58 | 25.07542 | 121.22240 | 105 ft | 14 kts | 230° |
| 2026-05-06 14:59 | 25.07472 | 121.22150 | 107 ft | 17 kts | 229° |
| 2026-05-06 14:59 | 25.07390 | 121.22048 | 106 ft | 19 kts | 229° |
| 2026-05-06 14:59 | 25.07299 | 121.21933 | 104 ft | 21 kts | 229° |
| 2026-05-06 14:59 | 25.07201 | 121.21805 | 106 ft | 21 kts | 234° |
| 2026-05-06 15:00 | 25.07200 | 121.21718 | 105 ft | 6 kts | 312° |
| 2026-05-06 15:00 | 25.07233 | 121.21681 | 105 ft | 9 kts | 319° |
| 2026-05-06 15:00 | 25.07327 | 121.21666 | 105 ft | 20 kts | 28° |
| 2026-05-06 15:00 | 25.07500 | 121.21861 | 105 ft | 62 kts | 49° |
| 2026-05-06 15:01 | 25.07906 | 121.22382 | 107 ft | 120 kts | 49° |
| 2026-05-06 15:01 | 25.08580 | 121.23228 | 129 ft | 170 kts | 48° |
| 2026-05-06 15:01 | 25.09353 | 121.24241 | 771 ft | 173 kts | 52° |
| 2026-05-06 15:01 | 25.09959 | 121.25309 | 1776 ft | 140 kts | 63° |
| 2026-05-06 15:02 | 25.10606 | 121.25911 | 2686 ft | 125 kts | 30° |
| 2026-05-06 15:02 | 25.11357 | 121.26498 | 2855 ft | 140 kts | 56° |
| 2026-05-06 15:02 | 25.11977 | 121.27361 | 3280 ft | 147 kts | 50° |
| 2026-05-06 15:02 | 25.12721 | 121.28191 | 3674 ft | 158 kts | 41° |
| 2026-05-06 15:03 | 25.13661 | 121.28929 | 4058 ft | 173 kts | 27° |
| 2026-05-06 15:03 | 25.14804 | 121.29418 | 4545 ft | 187 kts | 9° |
| 2026-05-06 15:03 | 25.16190 | 121.29430 | 5204 ft | 214 kts | 340° |
| 2026-05-06 15:03 | 25.17438 | 121.28442 | 5832 ft | 237 kts | 301° |
| 2026-05-06 15:04 | 25.17921 | 121.26644 | 6467 ft | 259 kts | 266° |
| 2026-05-06 15:04 | 25.17334 | 121.24695 | 7061 ft | 284 kts | 234° |
| 2026-05-06 15:04 | 25.15789 | 121.23200 | 7653 ft | 311 kts | 213° |
| 2026-05-06 15:04 | 25.13993 | 121.21716 | 8236 ft | 335 kts | 228° |
| 2026-05-06 15:05 | 25.12737 | 121.19524 | 8993 ft | 350 kts | 243° |
| 2026-05-06 15:05 | 25.11810 | 121.17108 | 9919 ft | 325 kts | 253° |
| 2026-05-06 15:05 | 25.11423 | 121.14767 | 10499 ft | 309 kts | 266° |
| 2026-05-06 15:05 | 25.11598 | 121.12369 | 11064 ft | 321 kts | 282° |
| 2026-05-06 15:06 | 25.12479 | 121.10074 | 11627 ft | 333 kts | 302° |
| 2026-05-06 15:06 | 25.14042 | 121.08130 | 12215 ft | 344 kts | 314° |
| 2026-05-06 15:06 | 25.15776 | 121.06281 | 12815 ft | 348 kts | 309° |
| 2026-05-06 15:06 | 25.17060 | 121.04080 | 13405 ft | 347 kts | 290° |
| 2026-05-06 15:07 | 25.17520 | 121.01483 | 13988 ft | 348 kts | 268° |
| 2026-05-06 15:07 | 25.17041 | 120.98879 | 14536 ft | 349 kts | 247° |
| 2026-05-06 15:07 | 25.15741 | 120.96618 | 15082 ft | 352 kts | 229° |
| 2026-05-06 15:07 | 25.14008 | 120.94683 | 15646 ft | 357 kts | 225° |
| 2026-05-06 15:08 | 25.12199 | 120.92799 | 16213 ft | 359 kts | 225° |
| 2026-05-06 15:08 | 25.10382 | 120.90897 | 16797 ft | 362 kts | 225° |
| 2026-05-06 15:08 | 25.08557 | 120.88964 | 17391 ft | 365 kts | 225° |
| 2026-05-06 15:08 | 25.06724 | 120.87008 | 17997 ft | 368 kts | 225° |
| 2026-05-06 15:09 | 25.04884 | 120.85036 | 18566 ft | 370 kts | 226° |
| 2026-05-06 15:09 | 25.03060 | 120.83078 | 19086 ft | 372 kts | 225° |
| 2026-05-06 15:09 | 25.01205 | 120.81084 | 19633 ft | 373 kts | 225° |
| 2026-05-06 15:09 | 24.99342 | 120.79080 | 20186 ft | 374 kts | 225° |
| 2026-05-06 15:10 | 24.97477 | 120.77075 | 20761 ft | 375 kts | 225° |
| 2026-05-06 15:10 | 24.95608 | 120.75066 | 21336 ft | 376 kts | 225° |
| 2026-05-06 15:10 | 24.93735 | 120.73052 | 21927 ft | 376 kts | 225° |
| 2026-05-06 15:10 | 24.91862 | 120.71040 | 22536 ft | 376 kts | 225° |
| 2026-05-06 15:11 | 24.89986 | 120.69027 | 23143 ft | 376 kts | 225° |
| 2026-05-06 15:11 | 24.88135 | 120.67039 | 23726 ft | 376 kts | 225° |
| 2026-05-06 15:11 | 24.86550 | 120.65339 | 24168 ft | 375 kts | 225° |
| 2026-05-06 15:12 | 24.85872 | 120.64611 | 24357 ft | 375 kts | 225° |
| 2026-05-06 15:12 | 24.84007 | 120.62611 | 24893 ft | 374 kts | 225° |
| 2026-05-06 15:13 | 24.82146 | 120.60617 | 25433 ft | 373 kts | 226° |
| 2026-05-06 15:13 | 24.80295 | 120.58634 | 25988 ft | 371 kts | 226° |
| 2026-05-06 15:13 | 24.78452 | 120.56660 | 26553 ft | 368 kts | 226° |
| 2026-05-06 15:13 | 24.76622 | 120.54702 | 27127 ft | 364 kts | 226° |
| 2026-05-06 15:14 | 24.74819 | 120.52773 | 27734 ft | 360 kts | 226° |
| 2026-05-06 15:14 | 24.72998 | 120.50942 | 28308 ft | 358 kts | 222° |
| 2026-05-06 15:14 | 24.71027 | 120.49280 | 28929 ft | 355 kts | 220° |
| 2026-05-06 15:14 | 24.69029 | 120.47710 | 29548 ft | 351 kts | 219° |
| 2026-05-06 15:15 | 24.67029 | 120.46197 | 30154 ft | 346 kts | 218° |
| 2026-05-06 15:15 | 24.65053 | 120.44726 | 30691 ft | 340 kts | 218° |
| 2026-05-06 15:15 | 24.63112 | 120.43285 | 31246 ft | 333 kts | 218° |
| 2026-05-06 15:15 | 24.61217 | 120.41873 | 31802 ft | 325 kts | 219° |
| 2026-05-06 15:16 | 24.59374 | 120.40494 | 32368 ft | 316 kts | 219° |
| 2026-05-06 15:16 | 24.57593 | 120.39156 | 32952 ft | 305 kts | 220° |